createdAt,value
2019-03-09T00:00:51.321Z,992.14
2019-03-09T00:01:51.304Z,992.14
2019-03-09T00:02:51.286Z,992.14
2019-03-09T00:03:51.264Z,992.14
2019-03-09T00:04:51.245Z,992.15
2019-03-09T00:05:51.226Z,992.17
2019-03-09T00:06:51.206Z,992.10
2019-03-09T00:07:51.189Z,992.15
2019-03-09T00:08:51.173Z,992.15
2019-03-09T00:09:51.149Z,992.19
2019-03-09T00:10:51.141Z,992.23
2019-03-09T00:11:51.119Z,992.17
2019-03-09T00:12:51.093Z,992.15
2019-03-09T00:13:51.074Z,992.11
2019-03-09T00:14:51.116Z,992.12
2019-03-09T00:15:51.052Z,992.10
2019-03-09T00:16:51.029Z,992.11
2019-03-09T00:17:51.006Z,992.07
2019-03-09T00:18:50.982Z,992.07
2019-03-09T00:19:50.965Z,992.10
2019-03-09T00:20:50.946Z,992.04
2019-03-09T00:21:50.928Z,992.03
2019-03-09T00:22:50.915Z,992.02
2019-03-09T00:23:50.891Z,992.00
2019-03-09T00:24:50.870Z,991.95
2019-03-09T00:25:50.869Z,991.97
2019-03-09T00:26:50.839Z,991.91
2019-03-09T00:27:50.820Z,991.90
2019-03-09T00:28:50.800Z,991.91
2019-03-09T00:29:50.790Z,991.90
2019-03-09T00:30:50.773Z,991.90
2019-03-09T00:31:50.742Z,991.93
2019-03-09T00:32:50.725Z,991.92
2019-03-09T00:33:50.728Z,991.89
2019-03-09T00:34:50.706Z,991.94
2019-03-09T00:35:50.696Z,991.89
2019-03-09T00:36:50.659Z,991.90
2019-03-09T00:37:50.631Z,991.91
2019-03-09T00:38:50.620Z,991.91
2019-03-09T00:39:50.593Z,991.93
2019-03-09T00:40:50.592Z,991.92
2019-03-09T00:41:50.564Z,991.90
2019-03-09T00:42:50.555Z,991.94
2019-03-09T00:43:50.517Z,991.93
2019-03-09T00:44:50.506Z,991.90
2019-03-09T00:45:50.480Z,991.83
2019-03-09T00:46:50.464Z,991.87
2019-03-09T00:47:50.465Z,991.83
2019-03-09T00:48:50.423Z,991.84
2019-03-09T00:49:50.415Z,991.84
2019-03-09T00:50:50.394Z,991.89
2019-03-09T00:51:50.377Z,991.72
2019-03-09T00:52:50.357Z,991.72
2019-03-09T00:53:50.371Z,991.72
2019-03-09T00:54:50.325Z,991.75
2019-03-09T00:55:50.299Z,991.69
2019-03-09T00:56:50.307Z,991.61
2019-03-09T00:57:50.302Z,991.62
2019-03-09T00:58:50.309Z,991.63
2019-03-09T00:59:50.275Z,991.62
2019-03-09T01:00:50.289Z,991.61
2019-03-09T01:01:50.196Z,991.62
2019-03-09T01:02:51.202Z,991.66
2019-03-09T01:03:50.209Z,991.66
2019-03-09T01:04:50.139Z,991.57
2019-03-09T01:05:50.113Z,991.62
2019-03-09T01:06:50.128Z,991.60
2019-03-09T01:07:50.078Z,991.58
2019-03-09T01:08:50.900Z,991.54
2019-03-09T01:09:50.095Z,991.43
2019-03-09T01:10:50.151Z,991.43
2019-03-09T01:11:50.044Z,991.40
2019-03-09T01:12:50.075Z,991.41
2019-03-09T01:13:50.010Z,991.42
2019-03-09T01:14:49.971Z,991.42
2019-03-09T01:15:50.016Z,991.41
2019-03-09T01:16:58.126Z,991.35
2019-03-09T01:19:19.473Z,991.23
2019-03-09T01:20:16.775Z,991.26
2019-03-09T01:22:36.293Z,991.22
2019-03-09T01:26:47.281Z,991.06
2019-03-09T01:27:47.254Z,990.97
2019-03-09T01:29:40.131Z,990.96
2019-03-09T01:30:40.074Z,990.88
2019-03-09T01:32:32.928Z,991.04
2019-03-09T01:33:32.905Z,991.06
2019-03-09T01:35:25.792Z,990.98
2019-03-09T01:36:26.312Z,991.01
2019-03-09T01:37:25.731Z,991.00
2019-03-09T01:38:25.857Z,990.97
2019-03-09T01:39:25.724Z,990.91
2019-03-09T01:40:25.663Z,990.92
2019-03-09T01:41:25.645Z,990.81
2019-03-09T01:42:25.635Z,990.79
2019-03-09T01:43:25.607Z,990.83
2019-03-09T01:44:25.592Z,990.81
2019-03-09T01:45:25.572Z,990.75
2019-03-09T01:46:25.558Z,990.77
2019-03-09T01:47:25.531Z,990.70
2019-03-09T01:48:25.522Z,990.64
2019-03-09T01:49:25.495Z,990.57
2019-03-09T01:50:25.476Z,990.63
2019-03-09T01:51:25.460Z,990.61
2019-03-09T01:52:25.437Z,990.58
2019-03-09T01:53:25.422Z,990.59
2019-03-09T01:54:25.407Z,990.64
2019-03-09T01:55:25.385Z,990.61
2019-03-09T01:56:25.367Z,990.62
2019-03-09T01:57:25.359Z,990.53
2019-03-09T01:58:25.332Z,990.56
2019-03-09T01:59:25.312Z,990.42
2019-03-09T02:00:25.294Z,990.49
2019-03-09T02:01:25.292Z,990.42
2019-03-09T02:02:25.256Z,990.49
2019-03-09T02:03:25.237Z,990.38
2019-03-09T02:04:25.296Z,990.45
2019-03-09T02:05:25.205Z,990.41
2019-03-09T02:06:25.183Z,990.35
2019-03-09T02:07:25.166Z,990.36
2019-03-09T02:08:25.145Z,990.27
2019-03-09T02:09:25.124Z,990.25
2019-03-09T02:10:25.116Z,990.25
2019-03-09T02:11:25.088Z,990.18
2019-03-09T02:12:25.075Z,990.15
2019-03-09T02:13:25.052Z,990.17
2019-03-09T02:14:25.036Z,990.15
2019-03-09T02:15:25.017Z,990.09
2019-03-09T02:16:24.996Z,990.07
2019-03-09T02:17:24.975Z,990.10
2019-03-09T02:18:24.963Z,989.99
2019-03-09T02:19:24.946Z,990.06
2019-03-09T02:20:24.934Z,990.06
2019-03-09T02:21:24.921Z,989.97
2019-03-09T02:22:24.882Z,989.98
2019-03-09T02:23:24.866Z,990.00
2019-03-09T02:24:24.846Z,989.95
2019-03-09T02:25:24.830Z,989.96
2019-03-09T02:26:24.806Z,989.91
2019-03-09T02:27:24.789Z,989.85
2019-03-09T02:28:24.778Z,989.90
2019-03-09T02:29:24.752Z,989.85
2019-03-09T02:30:24.741Z,989.87
2019-03-09T02:31:24.717Z,989.78
2019-03-09T02:32:24.701Z,989.80
2019-03-09T02:33:24.676Z,989.80
2019-03-09T02:34:24.659Z,989.78
2019-03-09T02:35:24.645Z,989.72
2019-03-09T02:36:24.624Z,989.69
2019-03-09T02:37:24.615Z,989.71
2019-03-09T02:38:24.587Z,989.62
2019-03-09T02:39:24.562Z,989.66
2019-03-09T02:40:24.551Z,989.62
2019-03-09T02:41:24.525Z,989.72
2019-03-09T02:42:24.514Z,989.67
2019-03-09T02:43:24.496Z,989.64
2019-03-09T02:44:24.476Z,989.58
2019-03-09T02:45:24.451Z,989.64
2019-03-09T02:46:24.438Z,989.59
2019-03-09T02:47:24.421Z,989.63
2019-03-09T02:48:24.404Z,989.54
2019-03-09T02:49:24.396Z,989.55
2019-03-09T02:50:24.386Z,989.56
2019-03-09T02:51:24.351Z,989.52
2019-03-09T02:52:24.343Z,989.54
2019-03-09T02:53:24.310Z,989.56
2019-03-09T02:54:24.288Z,989.59
2019-03-09T02:55:24.276Z,989.62
2019-03-09T02:56:24.253Z,989.46
2019-03-09T02:57:24.242Z,989.41
2019-03-09T02:58:24.220Z,989.46
2019-03-09T02:59:24.195Z,989.40
2019-03-09T03:00:24.185Z,989.39
2019-03-09T03:01:24.167Z,989.40
2019-03-09T03:02:24.146Z,989.47
2019-03-09T03:03:24.129Z,989.45
2019-03-09T03:04:24.103Z,989.41
2019-03-09T03:05:24.110Z,989.47
2019-03-09T03:06:24.075Z,989.36
2019-03-09T03:07:24.058Z,989.38
2019-03-09T03:08:24.038Z,989.15
2019-03-09T03:09:24.018Z,989.35
2019-03-09T03:10:24.000Z,989.28
2019-03-09T03:11:23.980Z,989.28
2019-03-09T03:12:23.960Z,989.21
2019-03-09T03:13:23.939Z,989.22
2019-03-09T03:14:23.920Z,989.20
2019-03-09T03:15:23.906Z,989.18
2019-03-09T03:16:23.890Z,989.19
2019-03-09T03:17:23.884Z,989.17
2019-03-09T03:18:23.854Z,989.14
2019-03-09T03:19:23.859Z,989.13
2019-03-09T03:20:23.814Z,989.13
2019-03-09T03:21:23.822Z,989.12
2019-03-09T03:22:23.789Z,989.09
2019-03-09T03:23:23.758Z,989.03
2019-03-09T03:24:23.740Z,989.09
2019-03-09T03:25:23.713Z,989.14
2019-03-09T03:26:23.702Z,989.08
2019-03-09T03:27:23.698Z,989.11
2019-03-09T03:28:23.664Z,989.12
2019-03-09T03:29:23.675Z,989.12
2019-03-09T03:30:23.650Z,989.08
2019-03-09T03:31:23.607Z,989.06
2019-03-09T03:32:23.589Z,989.12
2019-03-09T03:33:23.605Z,989.04
2019-03-09T03:34:23.550Z,989.16
2019-03-09T03:35:23.534Z,989.02
2019-03-09T03:36:23.514Z,988.99
2019-03-09T03:37:23.498Z,989.04
2019-03-09T03:38:23.476Z,988.99
2019-03-09T03:39:23.458Z,988.93
2019-03-09T03:40:23.444Z,988.98
2019-03-09T03:41:23.422Z,988.95
2019-03-09T03:42:23.400Z,988.99
2019-03-09T03:43:23.384Z,988.93
2019-03-09T03:44:23.364Z,988.92
2019-03-09T03:45:23.344Z,988.93
2019-03-09T03:46:23.318Z,988.95
2019-03-09T03:47:23.303Z,989.01
2019-03-09T03:48:23.314Z,989.08
2019-03-09T03:49:23.290Z,989.12
2019-03-09T03:50:23.289Z,988.96
2019-03-09T03:51:23.249Z,989.07
2019-03-09T03:52:23.219Z,988.94
2019-03-09T03:53:23.198Z,989.09
2019-03-09T03:54:23.194Z,988.99
2019-03-09T03:55:23.153Z,988.84
2019-03-09T03:56:23.154Z,988.88
2019-03-09T03:57:23.137Z,988.85
2019-03-09T03:58:23.122Z,988.88
2019-03-09T03:59:23.094Z,988.84
2019-03-09T04:00:23.072Z,988.87
2019-03-09T04:01:23.061Z,988.94
2019-03-09T04:02:23.062Z,988.83
2019-03-09T04:03:22.999Z,989.06
2019-03-09T04:04:22.987Z,989.04
2019-03-09T04:05:22.966Z,989.21
2019-03-09T04:06:22.950Z,989.06
2019-03-09T04:07:22.930Z,988.95
2019-03-09T04:08:22.926Z,989.02
2019-03-09T04:09:22.884Z,989.02
2019-03-09T04:10:22.880Z,988.85
2019-03-09T04:11:22.849Z,989.02
2019-03-09T04:12:22.866Z,989.02
2019-03-09T04:13:22.850Z,989.05
2019-03-09T04:14:31.962Z,989.02
2019-03-09T04:15:22.810Z,989.07
2019-03-09T04:16:22.803Z,988.97
2019-03-09T04:17:24.357Z,989.02
2019-03-09T04:18:24.374Z,989.04
2019-03-09T04:19:22.863Z,989.02
2019-03-09T04:20:24.470Z,989.06
2019-03-09T04:21:22.831Z,989.05
2019-03-09T04:22:22.799Z,989.06
2019-03-09T04:23:22.680Z,989.17
2019-03-09T04:24:22.687Z,989.13
2019-03-09T04:25:24.423Z,989.11
2019-03-09T04:26:26.693Z,989.18
2019-03-09T04:27:30.714Z,989.04
2019-03-09T04:29:16.445Z,989.21
2019-03-09T04:30:16.425Z,989.17
2019-03-09T04:32:10.265Z,989.21
2019-03-09T04:33:10.230Z,988.96
2019-03-09T04:35:03.087Z,989.11
2019-03-09T04:36:03.070Z,989.17
2019-03-09T04:37:03.048Z,989.17
2019-03-09T04:38:03.032Z,989.19
2019-03-09T04:39:03.013Z,989.16
2019-03-09T04:40:02.989Z,989.27
2019-03-09T04:41:02.974Z,989.20
2019-03-09T04:42:02.952Z,989.19
2019-03-09T04:43:02.940Z,989.24
2019-03-09T04:44:02.934Z,989.29
2019-03-09T04:45:02.895Z,989.28
2019-03-09T04:46:02.876Z,989.23
2019-03-09T04:47:02.868Z,989.27
2019-03-09T04:48:02.840Z,989.26
2019-03-09T04:49:02.821Z,989.23
2019-03-09T04:50:02.802Z,989.32
2019-03-09T04:51:02.780Z,989.42
2019-03-09T04:52:02.763Z,989.40
2019-03-09T04:53:02.744Z,989.32
2019-03-09T04:54:02.728Z,989.29
2019-03-09T04:55:02.706Z,989.30
2019-03-09T04:56:02.694Z,989.40
2019-03-09T04:57:02.672Z,989.35
2019-03-09T04:58:02.646Z,989.61
2019-03-09T04:59:02.629Z,989.57
2019-03-09T05:00:02.615Z,989.50
2019-03-09T05:01:02.591Z,989.41
2019-03-09T05:02:02.588Z,989.42
2019-03-09T05:03:02.558Z,989.32
2019-03-09T05:04:02.545Z,989.30
2019-03-09T05:05:02.515Z,989.35
2019-03-09T05:06:02.523Z,989.27
2019-03-09T05:07:02.479Z,989.41
2019-03-09T05:08:02.458Z,989.44
2019-03-09T05:09:02.439Z,989.33
2019-03-09T05:10:02.450Z,989.35
2019-03-09T05:11:02.403Z,989.30
2019-03-09T05:12:02.406Z,989.30
2019-03-09T05:13:02.364Z,989.33
2019-03-09T05:14:02.354Z,989.37
2019-03-09T05:15:02.344Z,989.36
2019-03-09T05:16:02.318Z,989.45
2019-03-09T05:17:02.288Z,989.45
2019-03-09T05:18:02.296Z,989.43
2019-03-09T05:19:02.248Z,989.41
2019-03-09T05:20:02.230Z,989.47
2019-03-09T05:21:02.212Z,989.51
2019-03-09T05:22:02.240Z,989.50
2019-03-09T05:23:03.141Z,989.54
2019-03-09T05:24:02.167Z,989.44
2019-03-09T05:25:02.145Z,989.45
2019-03-09T05:26:02.122Z,989.40
2019-03-09T05:27:02.139Z,989.56
2019-03-09T05:28:02.087Z,989.41
2019-03-09T05:29:02.068Z,989.36
2019-03-09T05:30:02.048Z,989.34
2019-03-09T05:31:02.021Z,989.48
2019-03-09T05:32:02.005Z,989.57
2019-03-09T05:33:01.988Z,989.52
2019-03-09T05:34:01.971Z,989.48
2019-03-09T05:35:01.948Z,989.39
2019-03-09T05:36:01.953Z,989.56
2019-03-09T05:37:01.922Z,989.48
2019-03-09T05:38:01.899Z,989.66
2019-03-09T05:39:01.879Z,989.53
2019-03-09T05:40:01.868Z,989.51
2019-03-09T05:41:01.839Z,989.57
2019-03-09T05:42:01.833Z,989.57
2019-03-09T05:43:01.816Z,989.45
2019-03-09T05:44:01.811Z,989.62
2019-03-09T05:45:01.771Z,989.55
2019-03-09T05:46:01.746Z,989.67
2019-03-09T05:47:01.723Z,989.65
2019-03-09T05:48:01.723Z,989.29
2019-03-09T05:49:01.690Z,989.20
2019-03-09T05:50:01.664Z,989.56
2019-03-09T05:51:01.649Z,989.71
2019-03-09T05:52:01.631Z,989.83
2019-03-09T05:53:01.608Z,989.74
2019-03-09T05:54:01.595Z,989.83
2019-03-09T05:55:01.579Z,989.80
2019-03-09T05:56:01.559Z,989.64
2019-03-09T05:57:01.537Z,989.73
2019-03-09T05:58:01.528Z,989.81
2019-03-09T05:59:01.508Z,989.68
2019-03-09T06:00:01.484Z,989.62
2019-03-09T06:01:01.464Z,989.80
2019-03-09T06:02:01.446Z,989.80
2019-03-09T06:03:01.422Z,989.81
2019-03-09T06:04:01.421Z,989.83
2019-03-09T06:05:01.389Z,989.84
2019-03-09T06:06:01.387Z,989.82
2019-03-09T06:07:01.346Z,989.91
2019-03-09T06:08:01.332Z,989.90
2019-03-09T06:09:01.313Z,990.05
2019-03-09T06:10:01.295Z,990.02
2019-03-09T06:11:01.278Z,990.02
2019-03-09T06:12:01.257Z,989.95
2019-03-09T06:13:01.244Z,990.10
2019-03-09T06:14:01.220Z,990.19
2019-03-09T06:15:01.196Z,990.06
2019-03-09T06:16:01.185Z,990.10
2019-03-09T06:17:01.165Z,990.01
2019-03-09T06:18:01.167Z,990.14
2019-03-09T06:19:01.132Z,990.19
2019-03-09T06:20:01.108Z,990.10
2019-03-09T06:21:01.094Z,990.06
2019-03-09T06:22:01.084Z,990.11
2019-03-09T06:23:01.066Z,990.24
2019-03-09T06:24:01.035Z,990.16
2019-03-09T06:25:01.015Z,990.22
2019-03-09T06:26:00.997Z,990.18
2019-03-09T06:27:00.979Z,990.27
2019-03-09T06:28:00.962Z,990.26
2019-03-09T06:29:00.937Z,990.40
2019-03-09T06:30:00.923Z,990.23
2019-03-09T06:31:00.906Z,990.26
2019-03-09T06:32:00.882Z,990.31
2019-03-09T06:33:00.866Z,990.19
2019-03-09T06:34:00.848Z,990.27
2019-03-09T06:35:00.829Z,990.50
2019-03-09T06:36:00.808Z,990.64
2019-03-09T06:37:00.793Z,990.69
2019-03-09T06:38:00.772Z,990.89
2019-03-09T06:39:00.753Z,990.81
2019-03-09T06:40:00.737Z,990.64
2019-03-09T06:41:03.216Z,990.63
2019-03-09T06:42:00.699Z,990.69
2019-03-09T06:43:00.682Z,990.83
2019-03-09T06:44:00.662Z,990.49
2019-03-09T06:45:00.643Z,990.55
2019-03-09T06:46:00.626Z,990.60
2019-03-09T06:47:00.610Z,990.59
2019-03-09T06:48:00.586Z,990.62
2019-03-09T06:49:00.564Z,990.63
2019-03-09T06:50:00.549Z,990.67
2019-03-09T06:51:00.525Z,990.66
2019-03-09T06:52:00.511Z,990.76
2019-03-09T06:53:00.627Z,990.82
2019-03-09T06:55:47.265Z,990.87
2019-03-09T06:57:00.295Z,990.88
2019-03-09T06:59:05.616Z,991.03
2019-03-09T07:00:05.564Z,990.99
2019-03-09T07:01:58.431Z,991.06
2019-03-09T07:02:58.409Z,991.14
2019-03-09T07:04:51.286Z,991.35
2019-03-09T07:05:51.255Z,991.28
2019-03-09T07:06:51.241Z,991.15
2019-03-09T07:07:51.225Z,991.18
2019-03-09T07:08:51.180Z,991.15
2019-03-09T07:09:51.180Z,991.22
2019-03-09T07:10:51.161Z,991.40
2019-03-09T07:11:51.135Z,991.32
2019-03-09T07:12:51.094Z,991.26
2019-03-09T07:13:53.102Z,991.43
2019-03-09T07:14:51.106Z,991.38
2019-03-09T07:15:51.106Z,991.37
2019-03-09T07:16:51.108Z,991.33
2019-03-09T07:17:51.073Z,991.29
2019-03-09T07:18:50.995Z,991.33
2019-03-09T07:19:50.993Z,991.39
2019-03-09T07:20:50.987Z,991.40
2019-03-09T07:21:50.975Z,991.42
2019-03-09T07:22:50.956Z,991.37
2019-03-09T07:23:50.920Z,991.47
2019-03-09T07:24:50.927Z,991.37
2019-03-09T07:25:50.882Z,991.38
2019-03-09T07:26:50.870Z,991.33
2019-03-09T07:27:50.852Z,991.39
2019-03-09T07:28:50.811Z,991.38
2019-03-09T07:29:50.810Z,991.35
2019-03-09T07:30:50.784Z,991.31
2019-03-09T07:31:50.823Z,991.38
2019-03-09T07:32:50.732Z,991.36
2019-03-09T07:33:50.757Z,991.30
2019-03-09T07:34:50.692Z,991.28
2019-03-09T07:35:50.718Z,991.37
2019-03-09T07:36:50.655Z,991.18
2019-03-09T07:37:50.647Z,991.38
2019-03-09T07:38:50.657Z,991.22
2019-03-09T07:39:50.626Z,991.23
2019-03-09T07:40:50.576Z,991.32
2019-03-09T07:41:50.592Z,991.31
2019-03-09T07:42:50.542Z,991.29
2019-03-09T07:43:50.552Z,991.28
2019-03-09T07:44:50.558Z,991.27
2019-03-09T07:45:50.487Z,991.27
2019-03-09T07:46:50.505Z,991.33
2019-03-09T07:47:50.465Z,991.28
2019-03-09T07:48:50.445Z,991.28
2019-03-09T07:49:50.414Z,991.31
2019-03-09T07:50:50.395Z,991.30
2019-03-09T07:51:50.376Z,991.28
2019-03-09T07:52:50.356Z,991.31
2019-03-09T07:53:50.341Z,991.29
2019-03-09T07:54:52.038Z,991.37
2019-03-09T07:55:50.305Z,991.35
2019-03-09T07:56:50.288Z,991.40
2019-03-09T07:57:50.265Z,991.46
2019-03-09T07:58:50.247Z,991.45
2019-03-09T07:59:50.229Z,991.46
2019-03-09T08:00:50.212Z,991.46
2019-03-09T08:01:50.194Z,991.50
2019-03-09T08:02:50.172Z,991.51
2019-03-09T08:03:50.155Z,991.51
2019-03-09T08:04:50.143Z,991.54
2019-03-09T08:05:50.127Z,991.47
2019-03-09T08:06:50.096Z,991.47
2019-03-09T08:07:50.086Z,991.46
2019-03-09T08:08:50.065Z,991.44
2019-03-09T08:09:50.041Z,991.41
2019-03-09T08:10:50.025Z,991.54
2019-03-09T08:11:50.005Z,991.56
2019-03-09T08:12:49.990Z,991.48
2019-03-09T08:13:49.967Z,991.63
2019-03-09T08:14:49.960Z,991.52
2019-03-09T08:15:49.930Z,991.63
2019-03-09T08:16:49.918Z,991.51
2019-03-09T08:17:49.897Z,991.60
2019-03-09T08:18:49.877Z,991.52
2019-03-09T08:19:49.864Z,991.58
2019-03-09T08:20:49.845Z,991.62
2019-03-09T08:21:49.828Z,991.67
2019-03-09T08:22:49.822Z,991.61
2019-03-09T08:23:49.793Z,991.64
2019-03-09T08:24:49.769Z,991.56
2019-03-09T08:25:49.754Z,991.61
2019-03-09T08:26:49.749Z,991.61
2019-03-09T08:27:49.728Z,991.67
2019-03-09T08:28:49.702Z,991.65
2019-03-09T08:29:49.682Z,991.59
2019-03-09T08:30:49.664Z,991.54
2019-03-09T08:31:49.657Z,991.54
2019-03-09T08:32:49.627Z,991.55
2019-03-09T08:33:49.627Z,991.56
2019-03-09T08:34:49.597Z,991.53
2019-03-09T08:35:49.574Z,991.54
2019-03-09T08:36:49.552Z,991.51
2019-03-09T08:37:49.555Z,991.45
2019-03-09T08:38:49.532Z,991.54
2019-03-09T08:39:49.506Z,991.55
2019-03-09T08:40:49.485Z,991.65
2019-03-09T08:41:49.528Z,991.63
2019-03-09T08:42:49.453Z,991.57
2019-03-09T08:43:49.491Z,991.58
2019-03-09T08:44:49.418Z,991.51
2019-03-09T08:45:49.395Z,991.57
2019-03-09T08:46:49.389Z,991.55
2019-03-09T08:47:52.486Z,991.55
2019-03-09T08:48:49.342Z,991.64
2019-03-09T08:49:49.326Z,991.60
2019-03-09T08:50:49.316Z,991.64
2019-03-09T08:51:49.341Z,991.68
2019-03-09T08:52:49.293Z,991.60
2019-03-09T08:53:49.288Z,991.67
2019-03-09T08:54:49.238Z,991.74
2019-03-09T08:55:49.228Z,991.79
2019-03-09T08:56:49.259Z,991.78
2019-03-09T08:57:49.213Z,991.81
2019-03-09T08:58:49.174Z,991.80
2019-03-09T09:01:30.596Z,991.92
2019-03-09T09:02:37.661Z,992.05
2019-03-09T09:08:32.901Z,992.08
2019-03-09T09:11:14.048Z,992.20
2019-03-09T09:12:14.013Z,992.26
2019-03-09T09:14:07.869Z,992.25
2019-03-09T09:15:07.846Z,992.23
2019-03-09T09:17:00.719Z,992.32
2019-03-09T09:18:10.813Z,992.26
2019-03-09T09:19:00.662Z,992.40
2019-03-09T09:20:11.307Z,992.28
2019-03-09T09:21:55.538Z,992.39
2019-03-09T09:22:55.505Z,992.30
2019-03-09T09:24:48.414Z,992.36
2019-03-09T09:25:48.388Z,992.32
2019-03-09T09:27:42.274Z,992.35
2019-03-09T09:28:42.241Z,992.36
2019-03-09T09:29:50.371Z,992.29
2019-03-09T09:31:35.389Z,992.29
2019-03-09T09:32:35.335Z,992.29
2019-03-09T09:33:43.505Z,992.33
2019-03-09T09:35:29.229Z,992.34
2019-03-09T09:36:29.203Z,992.38
2019-03-09T09:38:26.052Z,992.42
2019-03-09T09:39:25.992Z,992.42
2019-03-09T09:40:25.977Z,992.45
2019-03-09T09:41:25.953Z,992.40
2019-03-09T09:42:25.940Z,992.38
2019-03-09T09:43:25.928Z,992.35
2019-03-09T09:44:25.906Z,992.32
2019-03-09T09:45:25.890Z,992.36
2019-03-09T09:46:26.002Z,992.26
2019-03-09T09:47:25.883Z,992.19
2019-03-09T09:48:25.864Z,992.24
2019-03-09T09:49:25.890Z,992.31
2019-03-09T09:50:25.823Z,992.26
2019-03-09T09:51:25.823Z,992.36
2019-03-09T09:52:25.764Z,992.28
2019-03-09T09:53:25.758Z,992.33
2019-03-09T09:54:25.755Z,992.32
2019-03-09T09:55:25.735Z,992.23
2019-03-09T09:56:25.724Z,992.29
2019-03-09T09:57:25.716Z,992.23
2019-03-09T09:58:25.684Z,992.28
2019-03-09T09:59:25.648Z,992.17
2019-03-09T10:00:25.658Z,992.26
2019-03-09T10:01:25.615Z,992.25
2019-03-09T10:02:25.617Z,992.29
2019-03-09T10:03:25.596Z,992.25
2019-03-09T10:04:25.606Z,992.21
2019-03-09T10:05:25.819Z,992.21
2019-03-09T10:06:25.563Z,992.29
2019-03-09T10:07:25.542Z,992.26
2019-03-09T10:08:25.509Z,992.20
2019-03-09T10:09:25.499Z,992.22
2019-03-09T10:10:25.522Z,992.21
2019-03-09T10:11:25.456Z,992.33
2019-03-09T10:12:25.480Z,992.30
2019-03-09T10:13:25.461Z,992.26
2019-03-09T10:14:25.453Z,992.23
2019-03-09T10:15:25.390Z,992.30
2019-03-09T10:16:25.421Z,992.34
2019-03-09T10:17:25.364Z,992.27
2019-03-09T10:18:25.342Z,992.28
2019-03-09T10:19:25.328Z,992.32
2019-03-09T10:20:25.338Z,992.27
2019-03-09T10:21:25.280Z,992.18
2019-03-09T10:22:25.283Z,992.14
2019-03-09T10:23:25.241Z,992.22
2019-03-09T10:24:25.282Z,992.19
2019-03-09T10:25:25.230Z,992.19
2019-03-09T10:26:26.728Z,992.16
2019-03-09T10:27:25.171Z,992.23
2019-03-09T10:28:25.156Z,992.22
2019-03-09T10:29:25.149Z,992.31
2019-03-09T10:30:25.142Z,992.21
2019-03-09T10:31:25.121Z,992.20
2019-03-09T10:32:25.092Z,992.27
2019-03-09T10:33:25.080Z,992.26
2019-03-09T10:34:25.054Z,992.27
2019-03-09T10:35:25.061Z,992.37
2019-03-09T10:36:25.024Z,992.31
2019-03-09T10:37:25.012Z,992.32
2019-03-09T10:38:25.002Z,992.28
2019-03-09T10:39:25.004Z,992.31
2019-03-09T10:40:24.954Z,992.32
2019-03-09T10:41:24.999Z,992.32
2019-03-09T10:42:24.923Z,992.32
2019-03-09T10:43:24.908Z,992.26
2019-03-09T10:44:24.866Z,992.22
2019-03-09T10:45:24.862Z,992.36
2019-03-09T10:46:24.882Z,992.18
2019-03-09T10:47:24.842Z,992.18
2019-03-09T10:48:24.829Z,992.21
2019-03-09T10:49:24.803Z,992.25
2019-03-09T10:50:26.007Z,992.25
2019-03-09T10:51:24.764Z,992.19
2019-03-09T10:52:24.753Z,992.19
2019-03-09T10:53:24.746Z,992.19
2019-03-09T10:54:24.719Z,992.25
2019-03-09T10:55:24.707Z,992.14
2019-03-09T10:56:24.692Z,992.20
2019-03-09T10:57:24.682Z,992.17
2019-03-09T10:58:24.671Z,992.11
2019-03-09T10:59:24.632Z,992.08
2019-03-09T11:00:24.670Z,992.05
2019-03-09T11:01:24.588Z,992.09
2019-03-09T11:02:24.582Z,992.03
2019-03-09T11:03:24.583Z,991.98
2019-03-09T11:04:27.959Z,992.07
2019-03-09T11:05:24.548Z,992.02
2019-03-09T11:06:24.502Z,991.97
2019-03-09T11:07:24.724Z,991.98
2019-03-09T11:08:24.558Z,992.05
2019-03-09T11:09:24.466Z,992.11
2019-03-09T11:10:24.444Z,991.95
2019-03-09T11:11:24.440Z,991.98
2019-03-09T11:12:24.557Z,991.93
2019-03-09T11:13:25.444Z,992.00
2019-03-09T11:14:24.646Z,992.02
2019-03-09T11:15:24.790Z,991.90
2019-03-09T11:16:24.425Z,991.98
2019-03-09T11:17:24.475Z,991.95
2019-03-09T11:18:24.583Z,991.99
2019-03-09T11:19:24.275Z,991.95
2019-03-09T11:20:24.305Z,991.98
2019-03-09T11:21:24.248Z,991.93
2019-03-09T11:22:24.248Z,991.98
2019-03-09T11:23:24.260Z,992.08
2019-03-09T11:24:24.217Z,992.01
2019-03-09T11:25:24.187Z,992.08
2019-03-09T11:26:24.175Z,992.04
2019-03-09T11:27:24.170Z,992.09
2019-03-09T11:28:24.140Z,992.15
2019-03-09T11:29:24.124Z,992.03
2019-03-09T11:30:24.112Z,992.11
2019-03-09T11:31:24.072Z,992.14
2019-03-09T11:32:24.065Z,992.15
2019-03-09T11:33:24.062Z,992.14
2019-03-09T11:34:24.045Z,992.10
2019-03-09T11:35:24.028Z,992.13
2019-03-09T11:36:24.015Z,992.10
2019-03-09T11:37:24.000Z,992.18
2019-03-09T11:38:23.959Z,992.17
2019-03-09T11:39:23.990Z,992.13
2019-03-09T11:40:23.939Z,992.13
2019-03-09T11:41:23.931Z,992.09
2019-03-09T11:42:23.948Z,992.06
2019-03-09T11:43:23.892Z,992.00
2019-03-09T11:44:23.891Z,992.02
2019-03-09T11:45:24.618Z,991.97
2019-03-09T11:46:23.890Z,991.94
2019-03-09T11:47:23.827Z,991.89
2019-03-09T11:48:23.812Z,991.84
2019-03-09T11:49:23.789Z,991.75
2019-03-09T11:50:23.788Z,991.71
2019-03-09T11:51:23.748Z,991.67
2019-03-09T11:52:23.742Z,991.60
2019-03-09T11:53:23.750Z,991.46
2019-03-09T11:54:23.703Z,991.44
2019-03-09T11:55:23.683Z,991.43
2019-03-09T11:56:23.667Z,991.52
2019-03-09T11:57:23.680Z,991.35
2019-03-09T11:58:23.685Z,991.42
2019-03-09T11:59:23.655Z,991.55
2019-03-09T12:00:23.619Z,991.50
2019-03-09T12:01:23.639Z,991.49
2019-03-09T12:02:23.580Z,991.49
2019-03-09T12:03:23.572Z,991.70
2019-03-09T12:04:23.539Z,991.73
2019-03-09T12:05:23.522Z,991.77
2019-03-09T12:06:23.509Z,991.91
2019-03-09T12:07:23.501Z,991.93
2019-03-09T12:08:23.476Z,992.05
2019-03-09T12:09:23.447Z,992.08
2019-03-09T12:10:23.454Z,992.16
2019-03-09T12:11:23.481Z,992.11
2019-03-09T12:12:23.399Z,992.10
2019-03-09T12:13:23.379Z,992.16
2019-03-09T12:14:23.373Z,992.08
2019-03-09T12:15:23.360Z,992.02
2019-03-09T12:16:23.333Z,991.89
2019-03-09T12:17:23.319Z,991.92
2019-03-09T12:18:23.328Z,991.84
2019-03-09T12:19:23.285Z,991.85
2019-03-09T12:20:23.324Z,991.85
2019-03-09T12:21:23.254Z,991.77
2019-03-09T12:22:23.227Z,991.73
2019-03-09T12:23:23.228Z,991.70
2019-03-09T12:24:23.276Z,991.63
2019-03-09T12:25:23.194Z,991.67
2019-03-09T12:26:23.171Z,991.52
2019-03-09T12:27:23.175Z,991.54
2019-03-09T12:28:23.152Z,991.51
2019-03-09T12:29:23.127Z,991.56
2019-03-09T12:30:23.118Z,991.55
2019-03-09T12:31:23.114Z,991.59
2019-03-09T12:32:23.067Z,991.65
2019-03-09T12:33:23.113Z,991.60
2019-03-09T12:34:23.033Z,991.53
2019-03-09T12:35:23.022Z,991.50
2019-03-09T12:36:23.026Z,991.52
2019-03-09T12:37:23.003Z,991.58
2019-03-09T12:38:22.996Z,991.54
2019-03-09T12:39:22.952Z,991.53
2019-03-09T12:40:22.940Z,991.53
2019-03-09T12:41:22.948Z,991.50
2019-03-09T12:42:22.885Z,991.54
2019-03-09T12:43:22.890Z,991.53
2019-03-09T12:44:22.883Z,991.43
2019-03-09T12:45:22.856Z,991.52
2019-03-09T12:46:22.830Z,991.45
2019-03-09T12:47:22.810Z,991.36
2019-03-09T12:48:22.813Z,991.13
2019-03-09T12:49:22.777Z,991.12
2019-03-09T12:50:22.778Z,991.02
2019-03-09T12:51:22.746Z,990.92
2019-03-09T12:52:22.764Z,990.87
2019-03-09T12:53:22.729Z,990.87
2019-03-09T12:54:22.705Z,990.78
2019-03-09T12:55:22.686Z,990.63
2019-03-09T12:56:22.677Z,990.64
2019-03-09T12:57:22.670Z,990.59
2019-03-09T12:58:22.666Z,990.57
2019-03-09T12:59:22.610Z,990.60
2019-03-09T13:00:22.601Z,990.54